• Join FlightAware (Why Join?)
  • Login
  • US Flag 
08:02AM EDT


 

Airport Tracker/Info


-or-


 

Live Flight TrackerFlight Track Log ✈ SWA662 ✈ 04-Jun-2013 ✈ KLAX - KDEN

Flight Track Log - Related Links

Times and Time Zones

All times are in EDT time to prevent confusion due to time zone crossing. See the SWA662 flight status page for this flight to view local times or setup timezone preferences in your user account.

Time Position Orientation Groundspeed Altitude Reporting Facility
EDT Latitude Longitude Course Direction KTS MPH feet Rate Location/Type
11:11PM 33.9500 -118.4833 253° West 209 241 2,700  Level Southern California TRACON
11:12PM 33.9328 -118.5508 253° West 228 262 5,600 3,300 Climbing Los Angeles Center
11:13PM 33.8842 -118.5333 163° South 235 270 9,100 2,460 Climbing Los Angeles Center
11:14PM 33.9222 -118.4553 60° Northeast 278 320 10,800 2,160 Climbing Los Angeles Center
11:15PM 33.9744 -118.3589 57° Northeast 335 386 13,600 2,820 Climbing Los Angeles Center
11:16PM 34.0314 -118.2606 55° Northeast 353 406 16,700 2,880 Climbing Los Angeles Center
11:17PM 34.0906 -118.1558 56° Northeast 369 425 19,600 2,460 Climbing Los Angeles Center
11:18PM 34.1522 -118.0464 56° Northeast 386 444 21,800 2,040 Climbing Los Angeles Center
11:19PM 34.2189 -117.9281 56° Northeast 417 480 23,900 2,280 Climbing Los Angeles Center
11:20PM 34.2861 -117.8067 56° Northeast 432 497 26,500 2,160 Climbing Los Angeles Center
11:21PM 34.3536 -117.6864 56° Northeast 432 497 28,400 1,680 Climbing Los Angeles Center
11:23PM 34.4289 -117.5508 56° Northeast 441 507 30,000 1,440 Climbing Los Angeles Center
11:24PM 34.5114 -117.4286 51° Northeast 466 536 31,400 1,380 Climbing Los Angeles Center
11:25PM 34.5961 -117.3075 50° Northeast 475 547 32,900 1,380 Climbing Los Angeles Center
11:26PM 34.6997 -117.1622 49° Northeast 478 550 34,300 1,260 Climbing Los Angeles Center
11:27PM 34.7886 -117.0356 49° Northeast 493 567 35,600 1,320 Climbing Los Angeles Center
11:28PM 34.8761 -116.9100 50° Northeast 490 564 37,100 1,260 Climbing Los Angeles Center
11:29PM 34.9633 -116.7864 49° Northeast 483 556 38,300 900 Climbing Los Angeles Center
11:30PM 35.0503 -116.6622 49° Northeast 483 556 39,000 300 Climbing Los Angeles Center
11:31PM 35.1378 -116.5367 50° Northeast 487 560 39,000  Level Los Angeles Center
11:32PM 35.2439 -116.3867 49° Northeast 488 562 39,000  Level Los Angeles Center
11:33PM 35.3303 -116.2608 50° Northeast 487 560 39,000  Level Los Angeles Center
11:34PM 35.4147 -116.1342 51° Northeast 482 555 39,000  Level Los Angeles Center
11:35PM 35.5044 -116.0097 48° Northeast 488 562 39,000  Level Los Angeles Center
11:36PM 35.5961 -115.8742 50° Northeast 486 559 39,000  Level Los Angeles Center
11:37PM 35.6808 -115.7494 50° Northeast 479 551 39,000  Level Los Angeles Center
11:38PM 35.7656 -115.6242 50° Northeast 478 550 39,000  Level Los Angeles Center
11:39PM 35.8503 -115.5008 50° Northeast 475 547 39,000  Level Los Angeles Center
11:40PM 35.9492 -115.3533 50° Northeast 471 542 39,000  Level Los Angeles Center
11:41PM 36.0297 -115.2333 50° Northeast 459 528 39,000  Level Los Angeles Center
11:42PM 36.0986 -115.0994 57° Northeast 468 539 39,000  Level Los Angeles Center
11:43PM 36.1475 -114.9517 68° East 468 539 39,000  Level Los Angeles Center
11:44PM 36.2003 -114.8058 66° East 467 537 39,000  Level Los Angeles Center
11:45PM 36.2514 -114.6581 67° East 469 540 39,000  Level Los Angeles Center
11:46PM 36.3131 -114.4808 67° East 468 539 39,000  Level Los Angeles Center
11:47PM 36.3644 -114.3339 66° East 468 539 39,000  Level Los Angeles Center
11:48PM 36.4158 -114.1858 67° East 468 539 39,000  Level Los Angeles Center
11:49PM 36.4669 -114.0372 67° East 468 539 39,000  Level Los Angeles Center
11:50PM 36.5222 -113.8775 67° East 470 541 39,000  Level Los Angeles Center
11:51PM 36.5728 -113.7292 67° East 469 540 39,000  Level Los Angeles Center
11:52PM 36.6233 -113.5789 67° East 471 542 39,000  Level Los Angeles Center
11:53PM 36.6739 -113.4292 67° East 471 542 39,000  Level Los Angeles Center
11:54PM 36.7242 -113.2806 67° East 469 540 39,000  Level Los Angeles Center
11:55PM 36.7836 -113.1011 67° East 469 540 39,000  Level Los Angeles Center
11:56PM 36.8336 -112.9525 67° East 468 539 39,000  Level Los Angeles Center
11:57PM 36.8825 -112.8042 68° East 467 537 39,000  Level Los Angeles Center
11:58PM 36.9303 -112.6561 68° East 465 535 39,000  Level Los Angeles Center
12:00AM 36.9803 -112.5094 67° East 463 533 39,000  Level Los Angeles Center
12:01AM 37.0275 -112.3617 68° East 462 532 39,000  Level Los Angeles Center
12:02AM 37.0844 -112.1839 68° East 462 532 39,000  Level Los Angeles Center
12:03AM 37.1433 -112.0064 67° East 463 533 39,000  Level Los Angeles Center
12:04AM 37.1900 -111.8569 69° East 463 533 39,000  Level Los Angeles Center
12:04AM 37.1989 -111.8275 69° East 463 533 39,000  Level Denver Center
12:05AM 37.2475 -111.6800 67° East 460 529 39,000  Level Denver Center
12:06AM 37.3028 -111.5017 69° East 461 531 39,000  Level Denver Center
12:07AM 37.3606 -111.3225 68° East 462 532 39,000  Level Denver Center
12:08AM 37.4072 -111.1725 69° East 462 532 39,000  Level Denver Center
12:09AM 37.4539 -111.0194 69° East 469 540 39,000  Level Denver Center
12:10AM 37.5008 -110.8678 69° East 468 539 39,000  Level Denver Center
12:11AM 37.5478 -110.7147 69° East 470 541 39,000  Level Denver Center
12:12AM 37.5947 -110.5611 69° East 472 543 39,000  Level Denver Center
12:13AM 37.6444 -110.3956 69° East 475 547 39,000  Level Denver Center
12:14AM 37.6894 -110.2486 69° East 470 541 39,000  Level Denver Center
12:15AM 37.7417 -110.0758 69° East 471 542 39,000  Level Denver Center
12:17AM 37.7847 -109.9283 70° East 468 539 39,000  Level Denver Center
12:18AM 37.8289 -109.7803 69° East 469 540 39,000  Level Denver Center
12:19AM 37.8894 -109.6156 65° Northeast 462 532 39,000  Level Denver Center
12:20AM 37.9442 -109.4747 64° Northeast 465 535 39,000  Level Denver Center
12:21AM 37.9986 -109.3339 64° Northeast 464 534 39,000  Level Denver Center
12:22AM 38.0606 -109.1722 64° Northeast 472 543 39,000  Level Denver Center
12:23AM 38.1153 -109.0292 64° Northeast 474 545 39,000  Level Denver Center
12:24AM 38.1789 -108.8622 64° Northeast 472 543 39,000  Level Denver Center
12:25AM 38.2231 -108.7453 64° Northeast 464 534 39,000  Level Denver Center
12:26AM 38.2858 -108.5800 64° Northeast 464 534 39,000  Level Denver Center
12:27AM 38.3492 -108.4142 64° Northeast 467 537 39,000  Level Denver Center
12:28AM 38.4025 -108.2714 64° Northeast 468 539 39,000  Level Denver Center
12:29AM 38.4558 -108.1269 65° Northeast 471 542 39,000  Level Denver Center
12:30AM 38.5175 -107.9589 65° Northeast 470 541 39,000  Level Denver Center
12:31AM 38.5711 -107.8150 64° Northeast 470 541 39,000  Level Denver Center
12:32AM 38.6233 -107.6708 65° Northeast 469 540 39,000 -420 Level Denver Center
12:33AM 38.6847 -107.5036 65° Northeast 467 537 38,200 -840 Descending Denver Center
12:34AM 38.7367 -107.3589 65° Northeast 469 540 37,300 -900 Descending Denver Center
12:35AM 38.7886 -107.2153 65° Northeast 467 537 36,400 -1,020 Descending Denver Center
12:36AM 38.8469 -107.0514 65° Northeast 469 540 35,300 -720 Descending Denver Center
12:37AM 38.9003 -106.9022 65° Northeast 467 537 35,000 -180 Descending Denver Center
12:38AM 38.9531 -106.7575 65° Northeast 467 537 35,000  Level Denver Center
12:39AM 39.0133 -106.5881 65° Northeast 467 537 35,000 -480 Level Denver Center
12:40AM 39.0631 -106.4422 66° East 467 537 34,100 -2,040 Descending Denver Center
12:41AM 39.1231 -106.2717 66° East 468 539 30,900 -2,880 Descending Denver Center
12:42AM 39.1756 -106.1208 66° East 476 548 28,300 -2,580 Descending Denver Center
12:43AM 39.2281 -105.9683 66° East 468 539 25,700 -2,580 Descending Denver Center
12:44AM 39.2783 -105.8208 66° East 454 522 23,200 -2,460 Descending Denver Center
12:45AM 39.3269 -105.6800 66° East 435 501 20,800 -1,980 Descending Denver Center
12:46AM 39.3739 -105.5428 66° East 421 484 19,200 -1,380 Descending Denver Center
12:47AM 39.3925 -105.4025 80° East 402 463 18,100 -1,020 Descending Denver Center
12:48AM 39.4117 -105.2664 80° East 365 420 17,200 -1,080 Descending Denver Center
12:49AM 39.4386 -105.1503 73° East 340 391 16,000 -1,200 Descending Denver Center
12:50AM 39.4658 -105.0353 73° East 335 386 14,900 -840 Descending Denver Center
12:51AM 39.4667 -104.9244 89° East 310 357 14,300 -780 Descending Denver Center
12:52AM 39.4547 -104.8172 98° East 302 348 13,400 -900 Descending Denver Center
12:53AM 39.4433 -104.7147 98° East 290 334 12,600 -900 Descending Denver Center
12:54AM 39.4456 -104.6239 88° East 272 313 11,700 -1,080 Descending Denver Center
12:55AM 39.5069 -104.6286 357° North 235 270 10,500 -1,320 Descending Denver Center
12:56AM 39.5731 -104.6172 North 234 269 9,100 -1,200 Descending Denver Center
12:57AM 39.6294 -104.5856 23° Northeast 225 259 8,200 -600 Descending Denver Center
12:58AM 39.6778 -104.6003 347° North 203 234 7,900 -360 Descending Denver Center
12:59AM 39.7175 -104.6361 325° Northwest 172 198 7,500 -600 Descending Denver Center
01:00AM 39.7617 -104.6431 353° North 156 180 6,700 -840 Descending Denver Center
01:01AM 39.8028 -104.6422 North 149 171 5,900 -780 Descending Denver Center
01:02AM 39.8400 -104.6417 North 148 170 5,200 -720 Descending Denver Center
01:04AM 39.8500 -104.6667 North  Level FlightAware Approximate
01:11AM 39.8617 -104.6732 North  Level Estimated
01:12AM 39.8617 -104.6732 North  Level Estimated